sensor_id;sensor_type;location;lat;lon;timestamp;temperature;humidity
41220;DHT22;26951;47.338;9.196;2023-11-22T00:00:09;5.30;72.60
41220;DHT22;26951;47.338;9.196;2023-11-22T00:02:54;5.30;72.40
41220;DHT22;26951;47.338;9.196;2023-11-22T00:05:38;5.30;72.20
41220;DHT22;26951;47.338;9.196;2023-11-22T00:08:22;5.30;72.20
41220;DHT22;26951;47.338;9.196;2023-11-22T00:11:06;5.30;72.00
41220;DHT22;26951;47.338;9.196;2023-11-22T00:13:51;5.40;72.00
41220;DHT22;26951;47.338;9.196;2023-11-22T00:16:39;5.30;72.60
41220;DHT22;26951;47.338;9.196;2023-11-22T00:19:23;5.30;73.00
41220;DHT22;26951;47.338;9.196;2023-11-22T00:22:07;5.20;72.70
41220;DHT22;26951;47.338;9.196;2023-11-22T00:24:57;5.20;73.00
41220;DHT22;26951;47.338;9.196;2023-11-22T00:27:41;5.20;72.70
41220;DHT22;26951;47.338;9.196;2023-11-22T00:30:25;5.20;72.70
41220;DHT22;26951;47.338;9.196;2023-11-22T00:33:09;5.20;72.30
41220;DHT22;26951;47.338;9.196;2023-11-22T00:35:54;5.20;72.10
41220;DHT22;26951;47.338;9.196;2023-11-22T00:38:40;5.20;71.90
41220;DHT22;26951;47.338;9.196;2023-11-22T00:41:30;5.20;71.80
41220;DHT22;26951;47.338;9.196;2023-11-22T00:44:14;5.30;72.00
41220;DHT22;26951;47.338;9.196;2023-11-22T00:46:58;5.30;71.70
41220;DHT22;26951;47.338;9.196;2023-11-22T00:49:42;5.30;71.70
41220;DHT22;26951;47.338;9.196;2023-11-22T00:52:26;5.30;71.50
41220;DHT22;26951;47.338;9.196;2023-11-22T00:55:11;5.40;71.90
41220;DHT22;26951;47.338;9.196;2023-11-22T00:57:55;5.30;72.00
41220;DHT22;26951;47.338;9.196;2023-11-22T01:00:46;5.40;72.10
41220;DHT22;26951;47.338;9.196;2023-11-22T01:03:30;5.40;72.10
41220;DHT22;26951;47.338;9.196;2023-11-22T01:06:14;5.40;72.20
41220;DHT22;26951;47.338;9.196;2023-11-22T01:08:58;5.40;72.10
41220;DHT22;26951;47.338;9.196;2023-11-22T01:11:43;5.40;71.90
41220;DHT22;26951;47.338;9.196;2023-11-22T01:14:28;5.40;71.60
41220;DHT22;26951;47.338;9.196;2023-11-22T01:17:13;5.40;71.20
41220;DHT22;26951;47.338;9.196;2023-11-22T01:19:57;5.40;71.50
41220;DHT22;26951;47.338;9.196;2023-11-22T01:22:42;5.40;71.30
41220;DHT22;26951;47.338;9.196;2023-11-22T01:25:26;5.40;71.50
41220;DHT22;26951;47.338;9.196;2023-11-22T01:28:12;5.40;71.50
41220;DHT22;26951;47.338;9.196;2023-11-22T01:30:56;5.40;71.30
41220;DHT22;26951;47.338;9.196;2023-11-22T01:33:40;5.40;71.20
41220;DHT22;26951;47.338;9.196;2023-11-22T01:36:24;5.40;70.70
41220;DHT22;26951;47.338;9.196;2023-11-22T01:39:11;5.40;70.50
41220;DHT22;26951;47.338;9.196;2023-11-22T01:41:57;5.40;71.20
41220;DHT22;26951;47.338;9.196;2023-11-22T01:44:41;5.40;71.50
41220;DHT22;26951;47.338;9.196;2023-11-22T01:47:26;5.40;71.50
41220;DHT22;26951;47.338;9.196;2023-11-22T01:50:11;5.40;71.50
41220;DHT22;26951;47.338;9.196;2023-11-22T01:52:56;5.40;71.20
41220;DHT22;26951;47.338;9.196;2023-11-22T01:55:40;5.40;71.10
41220;DHT22;26951;47.338;9.196;2023-11-22T01:58:25;5.40;71.10
41220;DHT22;26951;47.338;9.196;2023-11-22T02:06:16;5.40;71.50
41220;DHT22;26951;47.338;9.196;2023-11-22T02:09:00;5.40;71.30
41220;DHT22;26951;47.338;9.196;2023-11-22T02:11:45;5.40;71.50
41220;DHT22;26951;47.338;9.196;2023-11-22T02:14:31;5.40;71.60
41220;DHT22;26951;47.338;9.196;2023-11-22T02:17:16;5.40;71.50
41220;DHT22;26951;47.338;9.196;2023-11-22T02:20:04;5.40;71.50
41220;DHT22;26951;47.338;9.196;2023-11-22T02:22:53;5.40;71.50
41220;DHT22;26951;47.338;9.196;2023-11-22T02:25:38;5.40;71.70
41220;DHT22;26951;47.338;9.196;2023-11-22T02:28:22;5.40;71.90
41220;DHT22;26951;47.338;9.196;2023-11-22T02:31:06;5.40;71.90
41220;DHT22;26951;47.338;9.196;2023-11-22T02:33:54;5.40;72.60
41220;DHT22;26951;47.338;9.196;2023-11-22T02:36:39;5.40;72.50
41220;DHT22;26951;47.338;9.196;2023-11-22T02:39:32;5.40;72.40
41220;DHT22;26951;47.338;9.196;2023-11-22T02:42:19;5.40;71.80
41220;DHT22;26951;47.338;9.196;2023-11-22T02:45:03;5.40;71.50
41220;DHT22;26951;47.338;9.196;2023-11-22T02:47:49;5.40;71.20
41220;DHT22;26951;47.338;9.196;2023-11-22T02:50:35;5.40;71.40
41220;DHT22;26951;47.338;9.196;2023-11-22T02:53:19;5.40;71.50
41220;DHT22;26951;47.338;9.196;2023-11-22T02:56:04;5.40;71.50
41220;DHT22;26951;47.338;9.196;2023-11-22T02:58:49;5.40;70.90
41220;DHT22;26951;47.338;9.196;2023-11-22T03:01:33;5.40;70.40
41220;DHT22;26951;47.338;9.196;2023-11-22T03:04:18;5.40;70.50
41220;DHT22;26951;47.338;9.196;2023-11-22T03:07:03;5.40;70.80
41220;DHT22;26951;47.338;9.196;2023-11-22T03:09:50;5.40;70.40
41220;DHT22;26951;47.338;9.196;2023-11-22T03:12:35;5.30;70.70
41220;DHT22;26951;47.338;9.196;2023-11-22T03:15:20;5.30;70.90
41220;DHT22;26951;47.338;9.196;2023-11-22T03:18:05;5.20;71.50
41220;DHT22;26951;47.338;9.196;2023-11-22T03:20:50;5.20;71.70
41220;DHT22;26951;47.338;9.196;2023-11-22T03:23:38;5.20;71.50
41220;DHT22;26951;47.338;9.196;2023-11-22T03:26:24;5.20;71.80
41220;DHT22;26951;47.338;9.196;2023-11-22T03:29:09;5.20;72.10
41220;DHT22;26951;47.338;9.196;2023-11-22T03:31:53;5.30;72.10
41220;DHT22;26951;47.338;9.196;2023-11-22T03:34:38;5.30;72.40
41220;DHT22;26951;47.338;9.196;2023-11-22T03:37:22;5.30;73.10
41220;DHT22;26951;47.338;9.196;2023-11-22T03:40:07;5.30;73.50
41220;DHT22;26951;47.338;9.196;2023-11-22T03:42:51;5.30;73.50
41220;DHT22;26951;47.338;9.196;2023-11-22T03:45:36;5.30;73.30
41220;DHT22;26951;47.338;9.196;2023-11-22T03:48:20;5.30;72.40
41220;DHT22;26951;47.338;9.196;2023-11-22T03:51:09;5.30;73.10
41220;DHT22;26951;47.338;9.196;2023-11-22T03:53:53;5.30;73.80
41220;DHT22;26951;47.338;9.196;2023-11-22T03:56:37;5.30;74.20
41220;DHT22;26951;47.338;9.196;2023-11-22T03:59:21;5.30;74.30
41220;DHT22;26951;47.338;9.196;2023-11-22T04:02:06;5.30;74.00
41220;DHT22;26951;47.338;9.196;2023-11-22T04:04:51;5.30;73.90
41220;DHT22;26951;47.338;9.196;2023-11-22T04:07:35;5.30;73.90
41220;DHT22;26951;47.338;9.196;2023-11-22T04:10:19;5.30;73.80
41220;DHT22;26951;47.338;9.196;2023-11-22T04:13:03;5.30;72.50
41220;DHT22;26951;47.338;9.196;2023-11-22T04:15:48;5.30;72.20
41220;DHT22;26951;47.338;9.196;2023-11-22T04:18:32;5.30;71.70
41220;DHT22;26951;47.338;9.196;2023-11-22T04:21:16;5.20;72.10
41220;DHT22;26951;47.338;9.196;2023-11-22T04:24:00;5.30;71.80
41220;DHT22;26951;47.338;9.196;2023-11-22T04:26:45;5.30;71.50
41220;DHT22;26951;47.338;9.196;2023-11-22T04:29:29;5.30;71.50
41220;DHT22;26951;47.338;9.196;2023-11-22T04:32:13;5.10;71.50
41220;DHT22;26951;47.338;9.196;2023-11-22T04:34:57;5.10;70.70
41220;DHT22;26951;47.338;9.196;2023-11-22T04:37:45;5.10;71.20
41220;DHT22;26951;47.338;9.196;2023-11-22T04:40:30;5.10;71.00
41220;DHT22;26951;47.338;9.196;2023-11-22T04:43:14;5.00;69.80
41220;DHT22;26951;47.338;9.196;2023-11-22T04:45:59;5.00;69.60
41220;DHT22;26951;47.338;9.196;2023-11-22T04:48:43;4.90;69.90
41220;DHT22;26951;47.338;9.196;2023-11-22T04:51:29;4.90;69.70
41220;DHT22;26951;47.338;9.196;2023-11-22T04:54:13;4.90;69.20
41220;DHT22;26951;47.338;9.196;2023-11-22T04:56:57;5.00;68.90
41220;DHT22;26951;47.338;9.196;2023-11-22T04:59:41;4.90;69.50
41220;DHT22;26951;47.338;9.196;2023-11-22T05:02:26;4.90;69.20
41220;DHT22;26951;47.338;9.196;2023-11-22T05:05:11;4.90;69.50
41220;DHT22;26951;47.338;9.196;2023-11-22T05:07:55;4.90;69.20
41220;DHT22;26951;47.338;9.196;2023-11-22T05:10:40;4.90;69.40
41220;DHT22;26951;47.338;9.196;2023-11-22T05:13:35;4.90;69.80
41220;DHT22;26951;47.338;9.196;2023-11-22T05:16:19;4.90;69.60
41220;DHT22;26951;47.338;9.196;2023-11-22T05:19:03;4.90;69.60
41220;DHT22;26951;47.338;9.196;2023-11-22T05:21:47;4.90;69.80
41220;DHT22;26951;47.338;9.196;2023-11-22T05:24:32;4.80;69.60
41220;DHT22;26951;47.338;9.196;2023-11-22T05:27:20;4.80;68.80
41220;DHT22;26951;47.338;9.196;2023-11-22T05:30:04;4.70;69.90
41220;DHT22;26951;47.338;9.196;2023-11-22T05:32:49;4.60;70.00
41220;DHT22;26951;47.338;9.196;2023-11-22T05:35:33;4.50;70.00
41220;DHT22;26951;47.338;9.196;2023-11-22T05:38:17;4.50;69.80
41220;DHT22;26951;47.338;9.196;2023-11-22T05:41:01;4.50;69.10
41220;DHT22;26951;47.338;9.196;2023-11-22T05:43:45;4.50;67.90
41220;DHT22;26951;47.338;9.196;2023-11-22T05:46:30;4.60;67.80
41220;DHT22;26951;47.338;9.196;2023-11-22T05:49:14;4.60;67.60
41220;DHT22;26951;47.338;9.196;2023-11-22T05:51:58;4.60;68.40
41220;DHT22;26951;47.338;9.196;2023-11-22T05:54:42;4.60;69.00
41220;DHT22;26951;47.338;9.196;2023-11-22T05:57:26;4.60;69.40
41220;DHT22;26951;47.338;9.196;2023-11-22T06:00:11;4.60;70.00
41220;DHT22;26951;47.338;9.196;2023-11-22T06:02:56;4.60;70.10
41220;DHT22;26951;47.338;9.196;2023-11-22T06:05:40;4.60;69.90
41220;DHT22;26951;47.338;9.196;2023-11-22T06:08:24;4.60;70.20
41220;DHT22;26951;47.338;9.196;2023-11-22T06:11:09;4.70;70.60
41220;DHT22;26951;47.338;9.196;2023-11-22T06:13:53;4.70;70.30
41220;DHT22;26951;47.338;9.196;2023-11-22T06:16:37;4.70;70.30
41220;DHT22;26951;47.338;9.196;2023-11-22T06:19:21;4.70;70.30
41220;DHT22;26951;47.338;9.196;2023-11-22T06:22:05;4.70;70.70
41220;DHT22;26951;47.338;9.196;2023-11-22T06:24:50;4.60;70.50
41220;DHT22;26951;47.338;9.196;2023-11-22T06:27:35;4.60;70.80
41220;DHT22;26951;47.338;9.196;2023-11-22T06:30:19;4.60;71.30
41220;DHT22;26951;47.338;9.196;2023-11-22T06:33:03;4.60;71.60
41220;DHT22;26951;47.338;9.196;2023-11-22T06:35:48;4.40;72.30
41220;DHT22;26951;47.338;9.196;2023-11-22T06:38:32;4.50;72.00
41220;DHT22;26951;47.338;9.196;2023-11-22T06:41:16;4.40;71.90
41220;DHT22;26951;47.338;9.196;2023-11-22T06:44:01;4.50;70.70
41220;DHT22;26951;47.338;9.196;2023-11-22T06:46:46;4.40;69.90
41220;DHT22;26951;47.338;9.196;2023-11-22T06:49:32;4.30;70.50
41220;DHT22;26951;47.338;9.196;2023-11-22T06:52:16;4.30;70.50
41220;DHT22;26951;47.338;9.196;2023-11-22T06:55:04;4.20;70.70
41220;DHT22;26951;47.338;9.196;2023-11-22T06:57:48;4.20;69.80
41220;DHT22;26951;47.338;9.196;2023-11-22T07:00:34;4.20;70.00
41220;DHT22;26951;47.338;9.196;2023-11-22T07:03:18;4.30;69.60
41220;DHT22;26951;47.338;9.196;2023-11-22T07:06:02;4.30;69.60
41220;DHT22;26951;47.338;9.196;2023-11-22T07:08:47;4.30;70.50
41220;DHT22;26951;47.338;9.196;2023-11-22T07:11:31;4.30;69.80
41220;DHT22;26951;47.338;9.196;2023-11-22T07:14:15;4.30;70.20
41220;DHT22;26951;47.338;9.196;2023-11-22T07:17:00;4.30;70.50
41220;DHT22;26951;47.338;9.196;2023-11-22T07:19:45;4.30;70.80
41220;DHT22;26951;47.338;9.196;2023-11-22T07:22:32;4.30;71.30
41220;DHT22;26951;47.338;9.196;2023-11-22T07:25:17;4.30;72.40
41220;DHT22;26951;47.338;9.196;2023-11-22T07:28:04;4.10;73.80
41220;DHT22;26951;47.338;9.196;2023-11-22T07:30:48;4.10;73.20
41220;DHT22;26951;47.338;9.196;2023-11-22T07:33:33;4.00;74.30
41220;DHT22;26951;47.338;9.196;2023-11-22T07:36:17;3.90;74.20
41220;DHT22;26951;47.338;9.196;2023-11-22T07:39:01;3.70;75.00
41220;DHT22;26951;47.338;9.196;2023-11-22T07:41:46;3.70;75.10
41220;DHT22;26951;47.338;9.196;2023-11-22T07:44:33;3.70;75.80
41220;DHT22;26951;47.338;9.196;2023-11-22T07:47:17;3.60;72.40
41220;DHT22;26951;47.338;9.196;2023-11-22T07:50:01;3.50;72.30
41220;DHT22;26951;47.338;9.196;2023-11-22T07:52:47;3.30;73.70
41220;DHT22;26951;47.338;9.196;2023-11-22T09:24:07;3.70;72.00
41220;DHT22;26951;47.338;9.196;2023-11-22T09:26:51;3.70;71.70
41220;DHT22;26951;47.338;9.196;2023-11-22T09:29:36;3.70;70.60
41220;DHT22;26951;47.338;9.196;2023-11-22T09:32:20;3.60;70.30
41220;DHT22;26951;47.338;9.196;2023-11-22T09:35:04;3.60;70.30
41220;DHT22;26951;47.338;9.196;2023-11-22T09:37:49;3.60;70.70
41220;DHT22;26951;47.338;9.196;2023-11-22T09:40:35;3.60;70.50
41220;DHT22;26951;47.338;9.196;2023-11-22T09:43:23;3.60;71.40
41220;DHT22;26951;47.338;9.196;2023-11-22T09:46:11;3.70;71.80
41220;DHT22;26951;47.338;9.196;2023-11-22T09:48:57;3.70;71.00
41220;DHT22;26951;47.338;9.196;2023-11-22T09:51:43;3.60;71.20
41220;DHT22;26951;47.338;9.196;2023-11-22T09:54:28;3.50;72.60
41220;DHT22;26951;47.338;9.196;2023-11-22T09:57:14;3.60;73.10
41220;DHT22;26951;47.338;9.196;2023-11-22T10:00:02;3.70;73.80
41220;DHT22;26951;47.338;9.196;2023-11-22T10:02:47;3.70;74.40
41220;DHT22;26951;47.338;9.196;2023-11-22T10:05:31;3.90;74.80
41220;DHT22;26951;47.338;9.196;2023-11-22T10:08:16;4.00;75.70
41220;DHT22;26951;47.338;9.196;2023-11-22T10:11:01;4.10;75.20
41220;DHT22;26951;47.338;9.196;2023-11-22T10:13:51;4.10;73.70
41220;DHT22;26951;47.338;9.196;2023-11-22T10:16:36;4.10;73.10
41220;DHT22;26951;47.338;9.196;2023-11-22T10:19:21;4.00;72.60
41220;DHT22;26951;47.338;9.196;2023-11-22T10:22:08;4.10;73.30
41220;DHT22;26951;47.338;9.196;2023-11-22T10:24:53;4.10;72.90
41220;DHT22;26951;47.338;9.196;2023-11-22T10:27:39;4.20;72.80
41220;DHT22;26951;47.338;9.196;2023-11-22T10:30:24;4.30;71.60
41220;DHT22;26951;47.338;9.196;2023-11-22T10:33:11;4.20;72.00
41220;DHT22;26951;47.338;9.196;2023-11-22T10:35:58;4.30;71.90
41220;DHT22;26951;47.338;9.196;2023-11-22T10:38:49;4.20;72.30
41220;DHT22;26951;47.338;9.196;2023-11-22T10:41:37;4.30;71.80
41220;DHT22;26951;47.338;9.196;2023-11-22T10:44:22;4.30;71.50
41220;DHT22;26951;47.338;9.196;2023-11-22T10:47:07;4.30;70.90
41220;DHT22;26951;47.338;9.196;2023-11-22T10:49:52;4.10;67.70
41220;DHT22;26951;47.338;9.196;2023-11-22T10:52:36;4.00;70.50
41220;DHT22;26951;47.338;9.196;2023-11-22T10:55:26;3.70;70.00
41220;DHT22;26951;47.338;9.196;2023-11-22T10:58:11;3.80;70.80
41220;DHT22;26951;47.338;9.196;2023-11-22T11:00:58;3.90;70.60
41220;DHT22;26951;47.338;9.196;2023-11-22T11:04:04;4.00;70.30
41220;DHT22;26951;47.338;9.196;2023-11-22T11:06:53;4.10;68.00
41220;DHT22;26951;47.338;9.196;2023-11-22T11:09:39;4.00;69.50
41220;DHT22;26951;47.338;9.196;2023-11-22T11:12:23;4.10;70.00
41220;DHT22;26951;47.338;9.196;2023-11-22T11:15:09;4.10;70.30
41220;DHT22;26951;47.338;9.196;2023-11-22T11:17:53;4.10;69.20
41220;DHT22;26951;47.338;9.196;2023-11-22T11:20:45;4.00;66.80
41220;DHT22;26951;47.338;9.196;2023-11-22T11:23:33;3.90;67.60
41220;DHT22;26951;47.338;9.196;2023-11-22T11:26:19;3.80;68.10
41220;DHT22;26951;47.338;9.196;2023-11-22T11:29:05;3.80;68.80
41220;DHT22;26951;47.338;9.196;2023-11-22T11:31:51;3.80;68.40
41220;DHT22;26951;47.338;9.196;2023-11-22T11:34:49;3.80;69.20
41220;DHT22;26951;47.338;9.196;2023-11-22T11:37:34;3.80;68.90
41220;DHT22;26951;47.338;9.196;2023-11-22T11:40:31;3.90;68.50
41220;DHT22;26951;47.338;9.196;2023-11-22T11:43:20;3.80;68.70
41220;DHT22;26951;47.338;9.196;2023-11-22T11:46:07;3.80;67.50
41220;DHT22;26951;47.338;9.196;2023-11-22T11:48:53;3.80;67.90
41220;DHT22;26951;47.338;9.196;2023-11-22T11:51:38;3.80;68.00
41220;DHT22;26951;47.338;9.196;2023-11-22T11:54:22;3.70;67.50
41220;DHT22;26951;47.338;9.196;2023-11-22T11:57:06;3.60;68.50
41220;DHT22;26951;47.338;9.196;2023-11-22T11:59:50;3.40;69.40
41220;DHT22;26951;47.338;9.196;2023-11-22T12:02:35;3.40;69.20
41220;DHT22;26951;47.338;9.196;2023-11-22T12:05:20;3.30;69.80
41220;DHT22;26951;47.338;9.196;2023-11-22T12:08:05;3.30;71.50
41220;DHT22;26951;47.338;9.196;2023-11-22T12:10:49;3.30;71.80
41220;DHT22;26951;47.338;9.196;2023-11-22T12:13:35;3.30;72.10
41220;DHT22;26951;47.338;9.196;2023-11-22T12:16:23;3.20;72.80
41220;DHT22;26951;47.338;9.196;2023-11-22T12:19:10;3.30;72.70
41220;DHT22;26951;47.338;9.196;2023-11-22T12:21:55;3.30;73.20
41220;DHT22;26951;47.338;9.196;2023-11-22T12:24:39;3.20;73.60
41220;DHT22;26951;47.338;9.196;2023-11-22T12:27:24;3.20;73.80
41220;DHT22;26951;47.338;9.196;2023-11-22T12:30:30;3.20;73.90
41220;DHT22;26951;47.338;9.196;2023-11-22T12:33:15;3.30;73.30
41220;DHT22;26951;47.338;9.196;2023-11-22T12:36:05;3.30;73.60
41220;DHT22;26951;47.338;9.196;2023-11-22T12:38:50;3.40;73.40
41220;DHT22;26951;47.338;9.196;2023-11-22T12:41:34;3.40;73.20
41220;DHT22;26951;47.338;9.196;2023-11-22T12:44:18;3.40;73.00
41220;DHT22;26951;47.338;9.196;2023-11-22T12:47:04;3.40;72.50
41220;DHT22;26951;47.338;9.196;2023-11-22T12:49:55;3.40;72.50
41220;DHT22;26951;47.338;9.196;2023-11-22T12:52:39;3.30;72.70
41220;DHT22;26951;47.338;9.196;2023-11-22T12:55:24;3.40;72.90
41220;DHT22;26951;47.338;9.196;2023-11-22T12:58:08;3.40;73.10
41220;DHT22;26951;47.338;9.196;2023-11-22T13:00:55;3.40;73.20
41220;DHT22;26951;47.338;9.196;2023-11-22T13:03:44;3.40;73.00
41220;DHT22;26951;47.338;9.196;2023-11-22T13:06:28;3.40;72.50
41220;DHT22;26951;47.338;9.196;2023-11-22T13:09:14;3.40;72.00
41220;DHT22;26951;47.338;9.196;2023-11-22T13:15:24;3.40;72.60
41220;DHT22;26951;47.338;9.196;2023-11-22T13:18:22;3.40;72.80
41220;DHT22;26951;47.338;9.196;2023-11-22T13:21:07;3.50;72.60
41220;DHT22;26951;47.338;9.196;2023-11-22T13:23:51;3.40;71.20
41220;DHT22;26951;47.338;9.196;2023-11-22T13:26:36;3.40;71.00
41220;DHT22;26951;47.338;9.196;2023-11-22T13:29:20;3.40;70.70
41220;DHT22;26951;47.338;9.196;2023-11-22T13:32:04;3.30;70.80
41220;DHT22;26951;47.338;9.196;2023-11-22T13:34:51;3.40;70.50
41220;DHT22;26951;47.338;9.196;2023-11-22T13:37:38;3.30;69.50
41220;DHT22;26951;47.338;9.196;2023-11-22T13:40:25;3.20;70.10
41220;DHT22;26951;47.338;9.196;2023-11-22T13:43:14;3.20;70.80
41220;DHT22;26951;47.338;9.196;2023-11-22T13:46:01;3.20;70.60
41220;DHT22;26951;47.338;9.196;2023-11-22T13:48:46;3.10;70.40
41220;DHT22;26951;47.338;9.196;2023-11-22T13:51:30;3.20;70.80
41220;DHT22;26951;47.338;9.196;2023-11-22T13:54:14;3.20;70.20
41220;DHT22;26951;47.338;9.196;2023-11-22T13:56:58;3.10;69.50
41220;DHT22;26951;47.338;9.196;2023-11-22T13:59:42;3.00;69.50
41220;DHT22;26951;47.338;9.196;2023-11-22T14:02:29;2.90;70.30
41220;DHT22;26951;47.338;9.196;2023-11-22T14:05:14;2.80;69.60
41220;DHT22;26951;47.338;9.196;2023-11-22T14:07:59;2.70;71.00
41220;DHT22;26951;47.338;9.196;2023-11-22T14:10:44;2.70;70.90
41220;DHT22;26951;47.338;9.196;2023-11-22T14:13:28;2.80;71.00
41220;DHT22;26951;47.338;9.196;2023-11-22T14:16:13;2.70;71.10
41220;DHT22;26951;47.338;9.196;2023-11-22T14:18:59;2.50;72.10
41220;DHT22;26951;47.338;9.196;2023-11-22T14:21:43;2.60;72.20
41220;DHT22;26951;47.338;9.196;2023-11-22T14:24:27;2.40;72.50
41220;DHT22;26951;47.338;9.196;2023-11-22T14:27:13;2.40;72.30
41220;DHT22;26951;47.338;9.196;2023-11-22T14:29:58;2.30;73.40
41220;DHT22;26951;47.338;9.196;2023-11-22T14:32:43;2.40;73.80
41220;DHT22;26951;47.338;9.196;2023-11-22T14:35:28;2.40;73.50
41220;DHT22;26951;47.338;9.196;2023-11-22T14:38:12;2.40;72.50
41220;DHT22;26951;47.338;9.196;2023-11-22T14:40:57;2.40;72.60
41220;DHT22;26951;47.338;9.196;2023-11-22T14:43:41;2.30;73.00
41220;DHT22;26951;47.338;9.196;2023-11-22T14:46:26;2.40;72.80
41220;DHT22;26951;47.338;9.196;2023-11-22T14:49:10;2.40;72.50
41220;DHT22;26951;47.338;9.196;2023-11-22T14:51:56;2.40;72.00
41220;DHT22;26951;47.338;9.196;2023-11-22T14:54:40;2.40;72.40
41220;DHT22;26951;47.338;9.196;2023-11-22T14:57:24;2.50;72.10
41220;DHT22;26951;47.338;9.196;2023-11-22T15:00:09;2.40;71.40
41220;DHT22;26951;47.338;9.196;2023-11-22T15:02:56;2.50;71.60
41220;DHT22;26951;47.338;9.196;2023-11-22T15:05:41;2.50;71.40
41220;DHT22;26951;47.338;9.196;2023-11-22T15:08:25;2.50;70.90
41220;DHT22;26951;47.338;9.196;2023-11-22T15:11:11;2.50;70.90
41220;DHT22;26951;47.338;9.196;2023-11-22T15:13:56;2.50;71.30
41220;DHT22;26951;47.338;9.196;2023-11-22T15:16:40;2.50;71.20
41220;DHT22;26951;47.338;9.196;2023-11-22T15:19:25;2.40;70.80
41220;DHT22;26951;47.338;9.196;2023-11-22T15:22:11;2.50;70.90
41220;DHT22;26951;47.338;9.196;2023-11-22T15:24:56;2.50;70.80
41220;DHT22;26951;47.338;9.196;2023-11-22T15:27:40;2.50;70.50
41220;DHT22;26951;47.338;9.196;2023-11-22T15:30:24;2.40;70.40
41220;DHT22;26951;47.338;9.196;2023-11-22T15:33:08;2.50;70.60
41220;DHT22;26951;47.338;9.196;2023-11-22T15:35:59;2.50;70.70
41220;DHT22;26951;47.338;9.196;2023-11-22T15:38:44;2.40;70.60
41220;DHT22;26951;47.338;9.196;2023-11-22T15:41:28;2.30;70.80
41220;DHT22;26951;47.338;9.196;2023-11-22T15:44:13;2.30;71.00
41220;DHT22;26951;47.338;9.196;2023-11-22T15:46:57;2.30;71.20
41220;DHT22;26951;47.338;9.196;2023-11-22T15:49:41;2.30;71.50
41220;DHT22;26951;47.338;9.196;2023-11-22T15:52:25;2.30;71.30
41220;DHT22;26951;47.338;9.196;2023-11-22T15:55:12;2.30;71.20
41220;DHT22;26951;47.338;9.196;2023-11-22T15:57:56;2.40;70.80
41220;DHT22;26951;47.338;9.196;2023-11-22T16:00:43;2.40;70.80
41220;DHT22;26951;47.338;9.196;2023-11-22T16:03:28;2.40;71.00
41220;DHT22;26951;47.338;9.196;2023-11-22T16:06:12;2.50;70.90
41220;DHT22;26951;47.338;9.196;2023-11-22T16:08:57;2.50;71.00
41220;DHT22;26951;47.338;9.196;2023-11-22T16:11:41;2.50;70.50
41220;DHT22;26951;47.338;9.196;2023-11-22T16:14:26;2.50;70.70
41220;DHT22;26951;47.338;9.196;2023-11-22T16:17:10;2.50;71.00
41220;DHT22;26951;47.338;9.196;2023-11-22T16:19:56;2.50;71.20
41220;DHT22;26951;47.338;9.196;2023-11-22T16:22:44;2.50;70.90
41220;DHT22;26951;47.338;9.196;2023-11-22T16:25:29;2.60;70.70
41220;DHT22;26951;47.338;9.196;2023-11-22T16:28:13;2.50;69.50
41220;DHT22;26951;47.338;9.196;2023-11-22T16:30:57;2.40;70.30
41220;DHT22;26951;47.338;9.196;2023-11-22T16:33:42;2.40;69.40
41220;DHT22;26951;47.338;9.196;2023-11-22T16:36:29;2.50;70.20
41220;DHT22;26951;47.338;9.196;2023-11-22T16:39:13;2.40;70.20
41220;DHT22;26951;47.338;9.196;2023-11-22T16:41:59;2.50;70.00
41220;DHT22;26951;47.338;9.196;2023-11-22T16:44:43;2.40;70.30
41220;DHT22;26951;47.338;9.196;2023-11-22T16:47:28;2.40;70.00
41220;DHT22;26951;47.338;9.196;2023-11-22T16:50:16;2.40;69.70
41220;DHT22;26951;47.338;9.196;2023-11-22T16:53:00;2.40;69.60
41220;DHT22;26951;47.338;9.196;2023-11-22T16:55:45;2.30;69.80
41220;DHT22;26951;47.338;9.196;2023-11-22T16:58:29;2.30;69.00
41220;DHT22;26951;47.338;9.196;2023-11-22T17:01:13;2.20;70.00
41220;DHT22;26951;47.338;9.196;2023-11-22T17:03:57;2.20;70.00
41220;DHT22;26951;47.338;9.196;2023-11-22T17:06:41;2.30;69.90
41220;DHT22;26951;47.338;9.196;2023-11-22T17:09:25;2.30;70.50
41220;DHT22;26951;47.338;9.196;2023-11-22T17:12:09;2.20;70.00
41220;DHT22;26951;47.338;9.196;2023-11-22T17:14:54;2.20;69.90
41220;DHT22;26951;47.338;9.196;2023-11-22T17:17:38;2.30;69.90
41220;DHT22;26951;47.338;9.196;2023-11-22T17:20:23;2.30;69.50
41220;DHT22;26951;47.338;9.196;2023-11-22T17:23:07;2.30;69.60
41220;DHT22;26951;47.338;9.196;2023-11-22T17:25:52;2.30;69.80
41220;DHT22;26951;47.338;9.196;2023-11-22T17:28:36;2.30;68.90
41220;DHT22;26951;47.338;9.196;2023-11-22T17:31:20;2.30;69.00
41220;DHT22;26951;47.338;9.196;2023-11-22T17:34:05;2.30;68.70
41220;DHT22;26951;47.338;9.196;2023-11-22T17:36:50;2.20;68.50
41220;DHT22;26951;47.338;9.196;2023-11-22T17:39:35;2.20;69.10
41220;DHT22;26951;47.338;9.196;2023-11-22T17:42:19;2.20;69.40
41220;DHT22;26951;47.338;9.196;2023-11-22T17:45:04;2.10;69.80
41220;DHT22;26951;47.338;9.196;2023-11-22T17:47:48;2.20;69.50
41220;DHT22;26951;47.338;9.196;2023-11-22T17:50:32;2.20;69.60
41220;DHT22;26951;47.338;9.196;2023-11-22T17:53:17;2.10;70.00
41220;DHT22;26951;47.338;9.196;2023-11-22T17:56:01;2.10;69.70
41220;DHT22;26951;47.338;9.196;2023-11-22T17:58:47;2.20;69.80
41220;DHT22;26951;47.338;9.196;2023-11-22T18:01:32;2.20;70.00
41220;DHT22;26951;47.338;9.196;2023-11-22T18:04:16;2.20;70.10
41220;DHT22;26951;47.338;9.196;2023-11-22T18:07:02;2.10;69.70
41220;DHT22;26951;47.338;9.196;2023-11-22T18:09:46;2.10;70.30
41220;DHT22;26951;47.338;9.196;2023-11-22T18:12:31;2.10;70.60
41220;DHT22;26951;47.338;9.196;2023-11-22T18:15:15;2.20;69.90
41220;DHT22;26951;47.338;9.196;2023-11-22T18:18:00;2.20;70.10
41220;DHT22;26951;47.338;9.196;2023-11-22T18:20:44;2.20;70.20
41220;DHT22;26951;47.338;9.196;2023-11-22T18:23:28;2.20;70.40
41220;DHT22;26951;47.338;9.196;2023-11-22T18:26:14;2.20;70.40
41220;DHT22;26951;47.338;9.196;2023-11-22T18:28:59;2.20;70.20
41220;DHT22;26951;47.338;9.196;2023-11-22T18:31:43;2.20;70.40
41220;DHT22;26951;47.338;9.196;2023-11-22T18:34:30;2.20;70.10
41220;DHT22;26951;47.338;9.196;2023-11-22T18:37:15;2.20;70.30
41220;DHT22;26951;47.338;9.196;2023-11-22T18:40:00;2.10;70.30
41220;DHT22;26951;47.338;9.196;2023-11-22T18:42:46;2.10;70.60
41220;DHT22;26951;47.338;9.196;2023-11-22T18:45:30;2.10;71.00
41220;DHT22;26951;47.338;9.196;2023-11-22T18:48:14;2.10;71.10
41220;DHT22;26951;47.338;9.196;2023-11-22T18:51:00;2.10;70.90
41220;DHT22;26951;47.338;9.196;2023-11-22T18:53:44;2.10;71.60
41220;DHT22;26951;47.338;9.196;2023-11-22T18:56:29;2.10;71.00
41220;DHT22;26951;47.338;9.196;2023-11-22T18:59:27;2.10;71.00
41220;DHT22;26951;47.338;9.196;2023-11-22T19:02:12;2.10;71.40
41220;DHT22;26951;47.338;9.196;2023-11-22T19:04:56;2.10;71.50
41220;DHT22;26951;47.338;9.196;2023-11-22T19:07:42;2.10;71.40
41220;DHT22;26951;47.338;9.196;2023-11-22T19:10:29;2.20;71.70
41220;DHT22;26951;47.338;9.196;2023-11-22T19:13:13;2.20;71.50
41220;DHT22;26951;47.338;9.196;2023-11-22T19:15:57;2.20;71.50